^^
Your Local Weather - Clay, NY Station Historical Data
Daily Summary for October 16, 2017 Units:  English    Metric   Both
« Previous Day
Next Day »
Daily Weekly Monthly Yearly Custom
  High: Low: Average:
Temperature: 54.2 °F 38.7 °F 45.6 °F
Dew Point: 46.1 °F 35.2 °F 39.2 °F
Humidity: 89% 70% 79%
Wind Speed: 4.0mph 0.0mph 1.3mph
Wind Gust: 10.0mph - -
Wind- - WNW
Pressure: 30.24 in 29.82 in -
Precipitation: 0.04 in    
Historical Graphs
 
 
Tabular Data for October 16, 2017
Time Temperature Dew Point Pressure Wind Wind Speed Wind Gust Humidity Rainfall Rate (Hourly) solar
00:04 54.2 °F 46.1 °F 29.82 in WNW 3.0 mph 4.0 mph 74% 0.00 in 0 W/m2
00:10 53.9 °F 45.4 °F 29.82 in WNW 3.0 mph 3.0 mph 73% 0.00 in 0 W/m2
00:16 53.8 °F 45.3 °F 29.83 in WNW 3.0 mph 4.0 mph 73% 0.00 in 0 W/m2
00:22 53.6 °F 45.2 °F 29.83 in West 3.0 mph 6.0 mph 73% 0.00 in 0 W/m2
00:28 53.4 °F 45.0 °F 29.84 in WNW 3.0 mph 6.0 mph 73% 0.00 in 0 W/m2
00:34 53.3 °F 44.9 °F 29.84 in NW 3.0 mph 5.0 mph 73% 0.00 in 0 W/m2
00:40 53.2 °F 44.8 °F 29.84 in ENE 4.0 mph 10.0 mph 73% 0.00 in 0 W/m2
00:46 53.0 °F 44.9 °F 29.85 in NW 3.0 mph 6.0 mph 74% 0.00 in 0 W/m2
00:52 52.7 °F 44.6 °F 29.85 in WNW 3.0 mph 5.0 mph 74% 0.00 in 0 W/m2
00:58 52.5 °F 44.4 °F 29.86 in West 3.0 mph 5.0 mph 74% 0.00 in 0 W/m2
01:04 52.3 °F 44.3 °F 29.87 in NW 3.0 mph 3.0 mph 74% 0.00 in 0 W/m2
01:10 52.1 °F 44.1 °F 29.87 in NW 2.0 mph 3.0 mph 74% 0.00 in 0 W/m2
01:16 51.7 °F 43.0 °F 29.87 in NNW 3.0 mph 4.0 mph 72% 0.00 in 0 W/m2
01:22 51.4 °F 42.7 °F 29.88 in WNW 3.0 mph 3.0 mph 72% 0.00 in 0 W/m2
01:28 51.0 °F 42.3 °F 29.88 in NW 4.0 mph 4.0 mph 72% 0.00 in 0 W/m2
01:34 50.9 °F 42.2 °F 29.89 in NW 3.0 mph 5.0 mph 72% 0.00 in 0 W/m2
01:40 50.7 °F 42.0 °F 29.89 in WNW 2.0 mph 4.0 mph 72% 0.00 in 0 W/m2
01:42 50.7 °F 41.6 °F 29.89 in NW 2.0 mph 4.0 mph 71% 0.00 in 0 W/m2
01:48 50.6 °F 41.5 °F 29.89 in NW 1.0 mph 6.0 mph 71% 0.00 in 0 W/m2
01:54 50.5 °F 41.4 °F 29.90 in NW 2.0 mph 3.0 mph 71% 0.00 in 0 W/m2
02:00 50.5 °F 41.8 °F 29.90 in NW 2.0 mph 2.0 mph 72% 0.00 in 0 W/m2
02:06 50.4 °F 41.7 °F 29.90 in NW 1.0 mph 2.0 mph 72% 0.00 in 0 W/m2
02:12 50.3 °F 42.3 °F 29.90 in Calm   1.0 mph 74% 0.00 in 0 W/m2
02:18 50.1 °F 41.8 °F 29.91 in NW 1.0 mph 1.0 mph 73% 0.00 in 0 W/m2
02:24 50.1 °F 42.1 °F 29.91 in NW 1.0 mph 2.0 mph 74% 0.00 in 0 W/m2
02:30 50.0 °F 43.1 °F 29.91 in Calm     77% 0.00 in 0 W/m2
02:36 49.7 °F 42.8 °F 29.92 in Calm   3.0 mph 77% 0.00 in 0 W/m2
02:42 49.5 °F 41.9 °F 29.92 in NW 1.0 mph 1.0 mph 75% 0.00 in 0 W/m2
02:48 49.5 °F 42.9 °F 29.92 in NW 1.0 mph 1.0 mph 78% 0.00 in 0 W/m2
02:54 49.3 °F 42.4 °F 29.92 in NNW 1.0 mph 2.0 mph 77% 0.00 in 0 W/m2
03:00 48.9 °F 42.7 °F 29.93 in NW 3.0 mph 3.0 mph 79% 0.00 in 0 W/m2
03:06 48.6 °F 42.7 °F 29.93 in NW 3.0 mph 3.0 mph 80% 0.00 in 0 W/m2
03:12 48.3 °F 42.7 °F 29.93 in WNW 3.0 mph 3.0 mph 81% 0.00 in 0 W/m2
03:18 48.3 °F 42.7 °F 29.93 in WNW 1.0 mph 3.0 mph 81% 0.00 in 0 W/m2
03:24 48.2 °F 42.3 °F 29.93 in WNW 1.0 mph 1.0 mph 80% 0.00 in 0 W/m2
03:30 48.3 °F 42.1 °F 29.93 in NW 1.0 mph 3.0 mph 79% 0.00 in 0 W/m2
03:36 48.3 °F 41.8 °F 29.93 in NW 1.0 mph 3.0 mph 78% 0.00 in 0 W/m2
03:42 48.3 °F 41.8 °F 29.94 in NW 1.0 mph 1.0 mph 78% 0.00 in 0 W/m2
03:48 48.2 °F 41.7 °F 29.94 in North 1.0 mph 2.0 mph 78% 0.00 in 0 W/m2
03:54 47.9 °F 41.4 °F 29.95 in WNW 2.0 mph 9.0 mph 78% 0.00 in 0 W/m2
04:00 47.4 °F 41.2 °F 29.95 in NW 4.0 mph 5.0 mph 79% 0.00 in 0 W/m2
04:06 46.9 °F 41.4 °F 29.95 in NW 4.0 mph 5.0 mph 81% 0.00 in 0 W/m2
04:12 46.5 °F 41.6 °F 29.96 in NW 3.0 mph 4.0 mph 83% 0.00 in 0 W/m2
04:18 46.3 °F 41.4 °F 29.95 in NNW 2.0 mph 4.0 mph 83% 0.00 in 0 W/m2
04:24 46.1 °F 41.5 °F 29.96 in NW 2.0 mph 4.0 mph 84% 0.00 in 0 W/m2
04:30 46.0 °F 41.4 °F 29.96 in NW 2.0 mph 2.0 mph 84% 0.00 in 0 W/m2
04:36 45.9 °F 41.6 °F 29.96 in NW 1.0 mph 2.0 mph 85% 0.00 in 0 W/m2
04:42 45.8 °F 41.5 °F 29.97 in NNW 1.0 mph 5.0 mph 85% 0.00 in 0 W/m2
04:48 45.6 °F 41.4 °F 29.97 in NW 1.0 mph 5.0 mph 85% 0.00 in 0 W/m2
04:54 45.5 °F 41.6 °F 29.97 in NW 1.0 mph 4.0 mph 86% 0.00 in 0 W/m2
05:00 45.3 °F 41.4 °F 29.98 in WNW 1.0 mph 1.0 mph 86% 0.00 in 0 W/m2
05:06 45.2 °F 41.6 °F 29.98 in Calm   1.0 mph 87% 0.00 in 0 W/m2
05:12 45.2 °F 41.9 °F 29.98 in Calm     88% 0.00 in 0 W/m2
05:18 45.2 °F 41.9 °F 29.98 in Calm   1.0 mph 88% 0.00 in 0 W/m2
05:24 45.2 °F 41.9 °F 29.98 in Calm     88% 0.00 in 0 W/m2
05:30 45.1 °F 41.8 °F 29.99 in Calm   2.0 mph 88% 0.00 in 0 W/m2
05:36 45.1 °F 41.8 °F 29.99 in Calm   2.0 mph 88% 0.00 in 0 W/m2
05:42 45.1 °F 41.8 °F 30.00 in Calm     88% 0.00 in 0 W/m2
05:48 45.1 °F 42.1 °F 30.00 in Calm     89% 0.00 in 0 W/m2
05:54 45.1 °F 42.1 °F 30.00 in Calm     89% 0.00 in 0 W/m2
06:00 44.9 °F 41.6 °F 30.00 in WNW 1.0 mph 1.0 mph 88% 0.00 in 0 W/m2
06:06 44.8 °F 41.5 °F 30.00 in Calm   1.0 mph 88% 0.00 in 0 W/m2
06:12 44.8 °F 41.2 °F 30.00 in WNW 1.0 mph 2.0 mph 87% 0.00 in 0 W/m2
06:18 44.9 °F 41.0 °F 30.00 in WNW 1.0 mph 2.0 mph 86% 0.00 in 0 W/m2
06:24 44.9 °F 40.7 °F 30.00 in WNW 1.0 mph 3.0 mph 85% 0.00 in 0 W/m2
06:30 45.0 °F 40.5 °F 30.01 in WNW 1.0 mph 1.0 mph 84% 0.00 in 0 W/m2
06:36 45.1 °F 40.6 °F 30.01 in Calm   1.0 mph 84% 0.00 in 0 W/m2
06:42 45.1 °F 40.2 °F 30.01 in Calm     83% 0.00 in 0 W/m2
06:48 45.2 °F 40.0 °F 30.01 in Calm     82% 0.00 in 0 W/m2
06:54 45.2 °F 40.3 °F 30.01 in Calm     83% 0.00 in 0 W/m2
07:00 45.3 °F 40.1 °F 30.02 in Calm   2.0 mph 82% 0.00 in 0 W/m2
07:06 45.4 °F 39.6 °F 30.02 in NW 1.0 mph 2.0 mph 80% 0.00 in 0 W/m2
07:12 45.5 °F 39.4 °F 30.02 in NW 1.0 mph 2.0 mph 79% 0.00 in 0 W/m2
07:18 45.6 °F 39.5 °F 30.03 in NW 1.0 mph 3.0 mph 79% 0.00 in 0 W/m2
07:24 45.6 °F 39.1 °F 30.03 in NW 1.0 mph 1.0 mph 78% 0.00 in 0 W/m2
07:30 45.6 °F 39.1 °F 30.03 in NW 1.0 mph 1.0 mph 78% 0.00 in 0 W/m2
07:36 45.6 °F 39.1 °F 30.03 in NW 1.0 mph 1.0 mph 78% 0.00 in 5 W/m2
07:42 45.6 °F 39.5 °F 30.04 in NW 1.0 mph 1.0 mph 79% 0.00 in 5 W/m2
07:48 45.5 °F 39.4 °F 30.04 in Calm   1.0 mph 79% 0.00 in 9 W/m2
07:54 45.5 °F 39.0 °F 30.04 in NW 1.0 mph 2.0 mph 78% 0.00 in 11 W/m2
08:00 45.5 °F 39.0 °F 30.04 in NNW 2.0 mph 2.0 mph 78% 0.00 in 12 W/m2
08:06 45.4 °F 38.6 °F 30.05 in NNW 2.0 mph 4.0 mph 77% 0.00 in 16 W/m2
08:12 45.3 °F 38.8 °F 30.05 in North 2.0 mph 2.0 mph 78% 0.00 in 18 W/m2
08:18 45.3 °F 38.8 °F 30.05 in NNW 1.0 mph 2.0 mph 78% 0.00 in 18 W/m2
08:24 45.3 °F 38.8 °F 30.05 in NW 1.0 mph 2.0 mph 78% 0.00 in 23 W/m2
08:30 45.3 °F 38.8 °F 30.06 in NW 1.0 mph 1.0 mph 78% 0.00 in 26 W/m2
08:36 45.3 °F 38.5 °F 30.06 in NW 1.0 mph 1.0 mph 77% 0.00 in 30 W/m2
08:42 45.4 °F 38.6 °F 30.06 in NW 1.0 mph 1.0 mph 77% 0.00 in 28 W/m2
08:48 45.4 °F 38.6 °F 30.06 in NW 1.0 mph 1.0 mph 77% 0.00 in 33 W/m2
08:54 45.5 °F 38.7 °F 30.07 in NW 1.0 mph 1.0 mph 77% 0.00 in 44 W/m2
09:00 45.4 °F 38.6 °F 30.07 in Calm   2.0 mph 77% 0.00 in 42 W/m2
09:06 45.3 °F 38.8 °F 30.08 in NW 1.0 mph 5.0 mph 78% 0.00 in 60 W/m2
09:12 45.1 °F 39.3 °F 30.08 in NNW 1.0 mph 1.0 mph 80% 0.00 in 74 W/m2
09:18 44.9 °F 39.7 °F 30.08 in NW 1.0 mph 2.0 mph 82% 0.00 in 67 W/m2
09:24 44.7 °F 39.5 °F 30.08 in NW 1.0 mph 1.0 mph 82% 0.00 in 53 W/m2
09:30 44.5 °F 39.7 °F 30.08 in NW 1.0 mph 1.0 mph 83% 0.00 in 35 W/m2
09:36 44.4 °F 39.6 °F 30.08 in NW 1.0 mph 2.0 mph 83% 0.00 in 46 W/m2
09:42 44.4 °F 39.2 °F 30.08 in NNW 2.0 mph 2.0 mph 82% 0.00 in 60 W/m2
09:48 44.6 °F 39.4 °F 30.08 in NNW 1.0 mph 3.0 mph 82% 0.00 in 88 W/m2
09:54 44.8 °F 39.3 °F 30.08 in NW 1.0 mph 4.0 mph 81% 0.00 in 116 W/m2
10:00 44.9 °F 38.8 °F 30.09 in NNW 2.0 mph 3.0 mph 79% 0.00 in 139 W/m2
10:06 45.1 °F 39.3 °F 30.09 in NW 2.0 mph 6.0 mph 80% 0.00 in 146 W/m2
10:12 45.0 °F 38.6 °F 30.09 in NNW 2.0 mph 5.0 mph 78% 0.00 in 179 W/m2
10:18 45.5 °F 39.4 °F 30.09 in North 2.0 mph 5.0 mph 79% 0.00 in 322 W/m2
10:24 45.8 °F 39.3 °F 30.09 in NW 2.0 mph 3.0 mph 78% 0.00 in 313 W/m2
10:30 46.5 °F 39.7 °F 30.09 in NW 2.0 mph 5.0 mph 77% 0.00 in 253 W/m2
10:36 47.2 °F 40.0 °F 30.09 in WNW 2.0 mph 5.0 mph 76% 0.00 in 199 W/m2
10:42 48.9 °F 41.7 °F 30.09 in NW 2.0 mph 4.0 mph 76% 0.00 in 647 W/m2
10:48 48.8 °F 39.4 °F 30.09 in NNW 2.0 mph 4.0 mph 70% 0.00 in 301 W/m2
10:54 47.9 °F 40.0 °F 30.09 in NNW 2.0 mph 5.0 mph 74% 0.00 in 232 W/m2
11:00 47.0 °F 39.1 °F 30.09 in NW 3.0 mph 4.0 mph 74% 0.00 in 183 W/m2
11:06 46.2 °F 39.4 °F 30.10 in NNW 4.0 mph 9.0 mph 77% 0.00 in 197 W/m2
11:12 45.4 °F 39.3 °F 30.10 in North 3.0 mph 6.0 mph 79% 0.00 in 142 W/m2
11:18 44.8 °F 39.0 °F 30.10 in North 4.0 mph 6.0 mph 80% 0.00 in 190 W/m2
11:24 44.6 °F 38.8 °F 30.10 in NW 4.0 mph 5.0 mph 80% 0.00 in 209 W/m2
11:30 45.0 °F 39.5 °F 30.11 in WNW 4.0 mph 9.0 mph 81% 0.00 in 276 W/m2
11:36 45.0 °F 39.5 °F 30.11 in WNW 3.0 mph 9.0 mph 81% 0.00 in 251 W/m2
11:42 45.1 °F 39.3 °F 30.11 in North 4.0 mph 5.0 mph 80% 0.00 in 169 W/m2
11:48 45.1 °F 39.3 °F 30.11 in North 3.0 mph 5.0 mph 80% 0.00 in 137 W/m2
11:54 44.9 °F 38.8 °F 30.11 in North 3.0 mph 6.0 mph 79% 0.00 in 132 W/m2
12:00 44.8 °F 39.0 °F 30.11 in NW 3.0 mph 3.0 mph 80% 0.00 in 141 W/m2
12:06 44.8 °F 39.0 °F 30.11 in North 4.0 mph 6.0 mph 80% 0.00 in 227 W/m2
12:12 45.7 °F 39.9 °F 30.11 in NNW 3.0 mph 4.0 mph 80% 0.00 in 452 W/m2
12:18 46.0 °F 39.9 °F 30.11 in NNW 2.0 mph 4.0 mph 79% 0.00 in 162 W/m2
12:24 45.7 °F 39.2 °F 30.11 in NNW 2.0 mph 4.0 mph 78% 0.00 in 142 W/m2
12:30 45.4 °F 39.3 °F 30.11 in NNW 3.0 mph 3.0 mph 79% 0.00 in 139 W/m2
12:36 45.9 °F 40.4 °F 30.11 in NNW 2.0 mph 3.0 mph 81% 0.00 in 279 W/m2
12:42 46.3 °F 39.8 °F 30.11 in NNW 1.0 mph 2.0 mph 78% 0.00 in 137 W/m2
12:48 46.4 °F 39.2 °F 30.11 in North 3.0 mph 8.0 mph 76% 0.00 in 125 W/m2
12:54 45.5 °F 39.0 °F 30.11 in NW 4.0 mph 4.0 mph 78% 0.00 in 213 W/m2
13:00 45.1 °F 39.9 °F 30.11 in NW 2.0 mph 3.0 mph 82% 0.00 in 301 W/m2
13:06 45.7 °F 41.4 °F 30.11 in NW 2.0 mph 3.0 mph 85% 0.00 in 338 W/m2
13:12 48.3 °F 42.4 °F 30.11 in NW 1.0 mph 2.0 mph 80% 0.00 in 239 W/m2
13:18 47.0 °F 39.8 °F 30.11 in NW 1.0 mph 2.0 mph 76% 0.00 in 163 W/m2
13:24 48.2 °F 42.0 °F 30.10 in West 1.0 mph 3.0 mph 79% 0.00 in 754 W/m2
13:30 49.1 °F 42.9 °F 30.10 in NW 1.0 mph 1.0 mph 79% 0.00 in 770 W/m2
13:36 48.1 °F 38.8 °F 30.10 in NNW 2.0 mph 5.0 mph 70% 0.00 in 179 W/m2
13:42 47.4 °F 39.2 °F 30.10 in NNW 2.0 mph 2.0 mph 73% 0.00 in 248 W/m2
13:48 47.2 °F 39.0 °F 30.10 in NW 2.0 mph 2.0 mph 73% 0.00 in 149 W/m2
13:54 47.1 °F 38.5 °F 30.10 in NNW 2.0 mph 3.0 mph 72% 0.00 in 104 W/m2
14:00 46.2 °F 38.7 °F 30.11 in NNW 2.0 mph 3.0 mph 75% 0.00 in 88 W/m2
14:06 44.7 °F 37.9 °F 30.11 in NW 2.0 mph 3.0 mph 77% 0.11 in 130 W/m2
14:12 45.1 °F 40.6 °F 30.11 in NW 1.0 mph 3.0 mph 84% 0.08 in 613 W/m2
14:18 45.3 °F 39.2 °F 30.11 in WSW 1.0 mph 4.0 mph 79% 0.04 in 155 W/m2
14:24 44.7 °F 38.6 °F 30.11 in NW 2.0 mph 4.0 mph 79% 0.00 in 251 W/m2
14:30 44.5 °F 39.7 °F 30.11 in NW 3.0 mph 3.0 mph 83% 0.00 in 334 W/m2
14:36 45.7 °F 41.1 °F 30.11 in NW 3.0 mph 8.0 mph 84% 0.00 in 308 W/m2
14:42 46.4 °F 40.6 °F 30.11 in NW 3.0 mph 5.0 mph 80% 0.00 in 490 W/m2
14:48 46.3 °F 39.5 °F 30.11 in NW 3.0 mph 7.0 mph 77% 0.00 in 292 W/m2
14:54 46.1 °F 39.0 °F 30.12 in West 3.0 mph 3.0 mph 76% 0.00 in 418 W/m2
15:00 46.8 °F 39.3 °F 30.12 in NW 3.0 mph 3.0 mph 75% 0.00 in 269 W/m2
15:06 46.5 °F 39.0 °F 30.12 in WNW 3.0 mph 4.0 mph 75% 0.00 in 206 W/m2
15:12 46.1 °F 38.6 °F 30.13 in NNW 3.0 mph 8.0 mph 75% 0.00 in 114 W/m2
15:18 45.6 °F 38.1 °F 30.12 in NW 3.0 mph 8.0 mph 75% 0.00 in 107 W/m2
15:24 45.3 °F 38.2 °F 30.13 in NW 2.0 mph 3.0 mph 76% 0.00 in 109 W/m2
15:30 45.3 °F 38.5 °F 30.13 in NW 2.0 mph 2.0 mph 77% 0.00 in 93 W/m2
15:36 45.4 °F 38.9 °F 30.13 in NNW 2.0 mph 5.0 mph 78% 0.00 in 176 W/m2
15:42 46.4 °F 39.6 °F 30.13 in WNW 3.0 mph 3.0 mph 77% 0.00 in 181 W/m2
15:48 46.2 °F 38.0 °F 30.14 in NW 3.0 mph 3.0 mph 73% 0.00 in 181 W/m2
15:54 45.8 °F 37.6 °F 30.14 in West 3.0 mph 3.0 mph 73% 0.00 in 111 W/m2
16:00 44.6 °F 36.5 °F 30.14 in NW 3.0 mph 3.0 mph 73% 0.00 in 121 W/m2
16:06 44.4 °F 37.0 °F 30.15 in NNW 2.0 mph 3.0 mph 75% 0.00 in 146 W/m2
16:12 44.4 °F 37.3 °F 30.15 in NNW 1.0 mph 2.0 mph 76% 0.00 in 155 W/m2
16:18 44.7 °F 37.3 °F 30.15 in NNW 1.0 mph 4.0 mph 75% 0.00 in 163 W/m2
16:24 45.0 °F 37.2 °F 30.15 in West 1.0 mph 2.0 mph 74% 0.00 in 163 W/m2
16:30 45.3 °F 37.5 °F 30.15 in NW 1.0 mph 1.0 mph 74% 0.00 in 130 W/m2
16:36 45.2 °F 37.1 °F 30.15 in West 1.0 mph 1.0 mph 73% 0.00 in 79 W/m2
16:42 44.8 °F 36.3 °F 30.15 in NW 2.0 mph 2.0 mph 72% 0.00 in 69 W/m2
16:48 44.0 °F 36.6 °F 30.15 in WSW 2.0 mph 2.0 mph 75% 0.00 in 79 W/m2
16:54 43.8 °F 37.1 °F 30.15 in SW 1.0 mph 2.0 mph 77% 0.00 in 79 W/m2
17:00 43.8 °F 37.4 °F 30.15 in West 1.0 mph 1.0 mph 78% 0.00 in 79 W/m2
17:06 44.0 °F 37.3 °F 30.15 in WNW 1.0 mph 1.0 mph 77% 0.00 in 63 W/m2
17:12 44.3 °F 37.2 °F 30.15 in NW 1.0 mph 1.0 mph 76% 0.00 in 54 W/m2
17:18 44.5 °F 36.7 °F 30.16 in NW 1.0 mph 2.0 mph 74% 0.00 in 53 W/m2
17:24 44.2 °F 37.1 °F 30.16 in WNW 2.0 mph 2.0 mph 76% 0.00 in 49 W/m2
17:30 43.6 °F 36.9 °F 30.16 in NNW 2.0 mph 2.0 mph 77% 0.00 in 44 W/m2
17:36 43.5 °F 37.1 °F 30.16 in NNW 1.0 mph 2.0 mph 78% 0.00 in 35 W/m2
17:42 43.4 °F 37.0 °F 30.16 in NNW 1.0 mph 1.0 mph 78% 0.00 in 32 W/m2
17:48 43.5 °F 37.1 °F 30.16 in Calm   1.0 mph 78% 0.00 in 21 W/m2
17:54 43.5 °F 37.1 °F 30.17 in Calm   1.0 mph 78% 0.00 in 16 W/m2
18:00 43.5 °F 37.1 °F 30.17 in Calm     78% 0.00 in 12 W/m2
18:06 43.5 °F 37.1 °F 30.17 in Calm     78% 0.00 in 7 W/m2
18:12 43.5 °F 37.1 °F 30.18 in Calm   1.0 mph 78% 0.00 in 5 W/m2
18:18 43.5 °F 36.8 °F 30.17 in Calm   1.0 mph 77% 0.00 in 0 W/m2
18:24 43.5 °F 36.4 °F 30.17 in Calm   1.0 mph 76% 0.00 in 0 W/m2
18:30 43.5 °F 36.4 °F 30.18 in Calm     76% 0.00 in 0 W/m2
18:36 43.5 °F 36.1 °F 30.18 in Calm     75% 0.00 in 0 W/m2
18:42 43.5 °F 36.1 °F 30.18 in Calm   2.0 mph 75% 0.00 in 0 W/m2
18:48 43.4 °F 36.3 °F 30.18 in Calm   2.0 mph 76% 0.00 in 0 W/m2
18:54 43.3 °F 36.2 °F 30.18 in Calm     76% 0.00 in 0 W/m2
19:00 43.3 °F 35.9 °F 30.18 in Calm     75% 0.00 in 0 W/m2
19:06 43.4 °F 36.3 °F 30.18 in Calm     76% 0.00 in 0 W/m2
19:12 43.4 °F 36.0 °F 30.18 in Calm     75% 0.00 in 0 W/m2
19:18 43.4 °F 36.0 °F 30.19 in Calm     75% 0.00 in 0 W/m2
19:24 43.5 °F 36.4 °F 30.19 in Calm     76% 0.00 in 0 W/m2
19:30 43.4 °F 36.0 °F 30.19 in Calm     75% 0.00 in 0 W/m2
19:36 43.3 °F 36.2 °F 30.19 in Calm   1.0 mph 76% 0.00 in 0 W/m2
19:42 43.2 °F 36.1 °F 30.19 in Calm     76% 0.00 in 0 W/m2
19:48 43.3 °F 35.9 °F 30.19 in Calm   1.0 mph 75% 0.00 in 0 W/m2
19:54 43.4 °F 36.0 °F 30.19 in Calm   3.0 mph 75% 0.00 in 0 W/m2
20:00 43.3 °F 36.2 °F 30.19 in Calm     76% 0.00 in 0 W/m2
20:06 43.3 °F 36.2 °F 30.20 in Calm     76% 0.00 in 0 W/m2
20:12 43.3 °F 36.2 °F 30.20 in Calm     76% 0.00 in 0 W/m2
20:18 43.3 °F 35.9 °F 30.20 in Calm     75% 0.00 in 0 W/m2
20:24 43.4 °F 36.0 °F 30.20 in Calm     75% 0.00 in 0 W/m2
20:30 43.4 °F 36.0 °F 30.20 in Calm     75% 0.00 in 0 W/m2
20:36 43.3 °F 35.9 °F 30.20 in Calm     75% 0.00 in 0 W/m2
20:42 43.1 °F 35.7 °F 30.20 in Calm     75% 0.00 in 0 W/m2
20:48 42.7 °F 35.3 °F 30.20 in Calm     75% 0.00 in 0 W/m2
20:54 42.4 °F 35.4 °F 30.20 in Calm     76% 0.00 in 0 W/m2
21:00 42.2 °F 35.2 °F 30.20 in Calm     76% 0.00 in 0 W/m2
21:06 42.0 °F 35.6 °F 30.20 in Calm     78% 0.00 in 0 W/m2
21:12 42.1 °F 35.4 °F 30.21 in Calm     77% 0.00 in 0 W/m2
21:18 42.1 °F 35.4 °F 30.21 in Calm     77% 0.00 in 0 W/m2
21:24 42.2 °F 37.1 °F 30.21 in Calm     82% 0.00 in 0 W/m2
21:30 42.0 °F 37.2 °F 30.21 in Calm     83% 0.00 in 0 W/m2
21:36 41.8 °F 37.0 °F 30.21 in NNE 1.0 mph 3.0 mph 83% 0.00 in 0 W/m2
21:42 41.9 °F 36.8 °F 30.22 in NNE 2.0 mph 2.0 mph 82% 0.00 in 0 W/m2
21:48 42.1 °F 36.7 °F 30.23 in NNE 1.0 mph 3.0 mph 81% 0.00 in 0 W/m2
21:54 42.4 °F 36.7 °F 30.23 in NNE 1.0 mph 1.0 mph 80% 0.00 in 0 W/m2
22:00 42.5 °F 36.8 °F 30.23 in Calm     80% 0.00 in 0 W/m2
22:06 42.5 °F 36.8 °F 30.23 in Calm     80% 0.00 in 0 W/m2
22:12 42.4 °F 36.7 °F 30.23 in NNE 1.0 mph 2.0 mph 80% 0.00 in 0 W/m2
22:18 42.2 °F 36.5 °F 30.23 in NNE 1.0 mph 2.0 mph 80% 0.00 in 0 W/m2
22:24 42.1 °F 36.4 °F 30.23 in Calm   1.0 mph 80% 0.00 in 0 W/m2
22:30 42.0 °F 36.3 °F 30.23 in Calm     80% 0.00 in 0 W/m2
22:36 41.9 °F 36.2 °F 30.23 in Calm     80% 0.00 in 0 W/m2
22:42 41.8 °F 36.1 °F 30.23 in Calm     80% 0.00 in 0 W/m2
22:48 41.8 °F 36.1 °F 30.23 in Calm     80% 0.00 in 0 W/m2
22:54 41.7 °F 36.3 °F 30.23 in Calm     81% 0.00 in 0 W/m2
23:00 41.6 °F 36.5 °F 30.23 in Calm     82% 0.00 in 0 W/m2
23:06 41.3 °F 36.2 °F 30.23 in Calm     82% 0.00 in 0 W/m2
23:20 40.3 °F 35.8 °F 30.23 in Calm     84% 0.00 in 0 W/m2
23:26 39.9 °F 35.8 °F 30.23 in Calm     85% 0.00 in 0 W/m2
23:28 39.7 °F 35.6 °F 30.23 in Calm     85% 0.00 in 0 W/m2
23:40 39.3 °F 35.5 °F 30.24 in Calm     86% 0.00 in 0 W/m2
23:46 39.0 °F 35.5 °F 30.23 in Calm     87% 0.00 in 0 W/m2
23:52 38.9 °F 35.4 °F 30.23 in Calm     87% 0.00 in 0 W/m2
23:54 38.8 °F 35.3 °F 30.23 in Calm     87% 0.00 in 0 W/m2
23:58 38.7 °F 35.5 °F 30.23 in Calm     88% 0.00 in 0 W/m2
Country Meadow, Clay, NY, USA
Compliments of Weather Underground - 2 mb